sensor_id;sensor_type;location;lat;lon;timestamp;temperature;humidity
758;DHT22;363;48.764;9.172;2023-04-03T00:01:01;6.00;99.90
758;DHT22;363;48.764;9.172;2023-04-03T00:03:27;6.50;99.90
758;DHT22;363;48.764;9.172;2023-04-03T00:05:53;5.90;99.90
758;DHT22;363;48.764;9.172;2023-04-03T00:08:19;5.80;99.90
758;DHT22;363;48.764;9.172;2023-04-03T00:10:45;5.70;99.90
758;DHT22;363;48.764;9.172;2023-04-03T00:13:10;6.00;99.90
758;DHT22;363;48.764;9.172;2023-04-03T00:15:37;5.70;99.90
758;DHT22;363;48.764;9.172;2023-04-03T00:18:03;5.60;99.90
758;DHT22;363;48.764;9.172;2023-04-03T00:20:29;5.40;99.90
758;DHT22;363;48.764;9.172;2023-04-03T00:22:55;5.90;99.90
758;DHT22;363;48.764;9.172;2023-04-03T00:25:21;6.10;99.90
758;DHT22;363;48.764;9.172;2023-04-03T00:27:47;5.90;99.90
758;DHT22;363;48.764;9.172;2023-04-03T00:30:18;6.10;99.90
758;DHT22;363;48.764;9.172;2023-04-03T00:32:44;6.00;99.90
758;DHT22;363;48.764;9.172;2023-04-03T00:35:10;6.20;99.90
758;DHT22;363;48.764;9.172;2023-04-03T00:37:36;6.00;99.90
758;DHT22;363;48.764;9.172;2023-04-03T00:40:03;5.40;99.90
758;DHT22;363;48.764;9.172;2023-04-03T00:42:29;5.90;99.90
758;DHT22;363;48.764;9.172;2023-04-03T00:47:23;6.00;99.90
758;DHT22;363;48.764;9.172;2023-04-03T00:49:50;6.00;99.90
758;DHT22;363;48.764;9.172;2023-04-03T00:52:20;5.60;99.90
758;DHT22;363;48.764;9.172;2023-04-03T00:54:49;6.40;99.90
758;DHT22;363;48.764;9.172;2023-04-03T00:57:17;5.90;99.90
758;DHT22;363;48.764;9.172;2023-04-03T00:59:55;6.00;99.90
758;DHT22;363;48.764;9.172;2023-04-03T01:02:22;5.50;99.90
758;DHT22;363;48.764;9.172;2023-04-03T01:04:47;6.30;99.90
758;DHT22;363;48.764;9.172;2023-04-03T01:07:19;5.40;99.90
758;DHT22;363;48.764;9.172;2023-04-03T01:09:48;6.10;99.90
758;DHT22;363;48.764;9.172;2023-04-03T01:12:20;5.70;99.90
758;DHT22;363;48.764;9.172;2023-04-03T01:14:49;5.90;99.90
758;DHT22;363;48.764;9.172;2023-04-03T01:25:46;5.90;99.90
758;DHT22;363;48.764;9.172;2023-04-03T01:28:15;5.90;99.90
758;DHT22;363;48.764;9.172;2023-04-03T01:33:41;6.00;99.90
758;DHT22;363;48.764;9.172;2023-04-03T01:36:13;5.50;99.90
758;DHT22;363;48.764;9.172;2023-04-03T01:38:39;6.00;99.90
758;DHT22;363;48.764;9.172;2023-04-03T01:41:04;6.00;99.90
758;DHT22;363;48.764;9.172;2023-04-03T01:43:30;5.50;99.90
758;DHT22;363;48.764;9.172;2023-04-03T01:45:56;6.10;99.90
758;DHT22;363;48.764;9.172;2023-04-03T01:48:21;5.80;99.90
758;DHT22;363;48.764;9.172;2023-04-03T01:50:47;5.80;99.90
758;DHT22;363;48.764;9.172;2023-04-03T01:53:13;5.80;99.90
758;DHT22;363;48.764;9.172;2023-04-03T01:55:39;5.70;99.90
758;DHT22;363;48.764;9.172;2023-04-03T01:58:05;5.80;99.90
758;DHT22;363;48.764;9.172;2023-04-03T02:00:30;5.70;99.90
758;DHT22;363;48.764;9.172;2023-04-03T02:02:56;6.00;99.90
758;DHT22;363;48.764;9.172;2023-04-03T02:05:22;5.50;99.90
758;DHT22;363;48.764;9.172;2023-04-03T02:07:48;6.00;99.90
758;DHT22;363;48.764;9.172;2023-04-03T02:10:14;6.10;99.90
758;DHT22;363;48.764;9.172;2023-04-03T02:12:40;6.20;99.90
758;DHT22;363;48.764;9.172;2023-04-03T02:15:06;5.80;99.90
758;DHT22;363;48.764;9.172;2023-04-03T02:17:32;6.00;99.90
758;DHT22;363;48.764;9.172;2023-04-03T02:19:57;5.70;99.90
758;DHT22;363;48.764;9.172;2023-04-03T02:22:23;5.90;99.90
758;DHT22;363;48.764;9.172;2023-04-03T02:24:49;6.00;99.60
758;DHT22;363;48.764;9.172;2023-04-03T02:27:15;6.00;99.80
758;DHT22;363;48.764;9.172;2023-04-03T02:29:41;6.30;99.60
758;DHT22;363;48.764;9.172;2023-04-03T02:32:06;5.40;99.20
758;DHT22;363;48.764;9.172;2023-04-03T02:34:32;6.00;99.70
758;DHT22;363;48.764;9.172;2023-04-03T02:36:58;5.80;99.80
758;DHT22;363;48.764;9.172;2023-04-03T02:39:23;5.80;99.20
758;DHT22;363;48.764;9.172;2023-04-03T02:41:49;5.80;98.30
758;DHT22;363;48.764;9.172;2023-04-03T02:44:14;5.70;97.70
758;DHT22;363;48.764;9.172;2023-04-03T02:46:40;5.90;98.20
758;DHT22;363;48.764;9.172;2023-04-03T02:49:06;5.80;99.00
758;DHT22;363;48.764;9.172;2023-04-03T02:51:32;5.40;98.50
758;DHT22;363;48.764;9.172;2023-04-03T02:53:57;5.40;98.60
758;DHT22;363;48.764;9.172;2023-04-03T02:56:23;5.60;98.90
758;DHT22;363;48.764;9.172;2023-04-03T02:58:49;6.00;98.90
758;DHT22;363;48.764;9.172;2023-04-03T03:01:14;5.20;98.30
758;DHT22;363;48.764;9.172;2023-04-03T03:03:40;5.80;99.10
758;DHT22;363;48.764;9.172;2023-04-03T03:06:17;5.70;98.90
758;DHT22;363;48.764;9.172;2023-04-03T03:08:43;5.50;98.80
758;DHT22;363;48.764;9.172;2023-04-03T03:11:09;5.80;98.30
758;DHT22;363;48.764;9.172;2023-04-03T03:13:35;5.80;98.10
758;DHT22;363;48.764;9.172;2023-04-03T03:16:02;5.90;98.00
758;DHT22;363;48.764;9.172;2023-04-03T03:18:28;6.00;97.80
758;DHT22;363;48.764;9.172;2023-04-03T03:20:58;5.60;97.40
758;DHT22;363;48.764;9.172;2023-04-03T03:23:25;5.70;98.00
758;DHT22;363;48.764;9.172;2023-04-03T03:25:59;5.60;98.20
758;DHT22;363;48.764;9.172;2023-04-03T03:28:25;5.70;98.10
758;DHT22;363;48.764;9.172;2023-04-03T03:30:51;5.70;97.40
758;DHT22;363;48.764;9.172;2023-04-03T03:33:17;5.90;98.20
758;DHT22;363;48.764;9.172;2023-04-03T03:35:43;5.60;98.80
758;DHT22;363;48.764;9.172;2023-04-03T03:38:09;5.90;98.80
758;DHT22;363;48.764;9.172;2023-04-03T03:40:35;5.90;98.10
758;DHT22;363;48.764;9.172;2023-04-03T03:43:01;5.90;98.20
758;DHT22;363;48.764;9.172;2023-04-03T03:45:26;6.00;97.90
758;DHT22;363;48.764;9.172;2023-04-03T03:47:52;5.80;98.10
758;DHT22;363;48.764;9.172;2023-04-03T03:50:18;5.50;98.20
758;DHT22;363;48.764;9.172;2023-04-03T03:52:43;5.70;98.20
758;DHT22;363;48.764;9.172;2023-04-03T03:55:10;5.70;98.10
758;DHT22;363;48.764;9.172;2023-04-03T03:57:35;5.80;98.40
758;DHT22;363;48.764;9.172;2023-04-03T04:00:02;5.70;98.30
758;DHT22;363;48.764;9.172;2023-04-03T04:02:28;5.90;98.20
758;DHT22;363;48.764;9.172;2023-04-03T04:04:54;5.60;98.10
758;DHT22;363;48.764;9.172;2023-04-03T04:07:20;5.80;98.10
758;DHT22;363;48.764;9.172;2023-04-03T04:09:45;5.00;97.40
758;DHT22;363;48.764;9.172;2023-04-03T04:12:11;4.80;96.70
758;DHT22;363;48.764;9.172;2023-04-03T04:14:37;5.40;97.70
758;DHT22;363;48.764;9.172;2023-04-03T04:17:02;5.50;97.80
758;DHT22;363;48.764;9.172;2023-04-03T04:19:28;6.00;98.00
758;DHT22;363;48.764;9.172;2023-04-03T04:21:54;6.00;97.80
758;DHT22;363;48.764;9.172;2023-04-03T04:24:20;5.60;97.50
758;DHT22;363;48.764;9.172;2023-04-03T04:26:45;5.50;97.40
758;DHT22;363;48.764;9.172;2023-04-03T04:29:11;5.40;98.10
758;DHT22;363;48.764;9.172;2023-04-03T04:31:37;5.50;97.20
758;DHT22;363;48.764;9.172;2023-04-03T04:34:02;5.60;96.90
758;DHT22;363;48.764;9.172;2023-04-03T04:36:28;5.50;96.60
758;DHT22;363;48.764;9.172;2023-04-03T04:38:53;5.40;96.60
758;DHT22;363;48.764;9.172;2023-04-03T04:41:22;5.70;96.50
758;DHT22;363;48.764;9.172;2023-04-03T04:43:51;5.70;96.30
758;DHT22;363;48.764;9.172;2023-04-03T04:46:17;5.50;96.30
758;DHT22;363;48.764;9.172;2023-04-03T04:48:43;5.90;96.60
758;DHT22;363;48.764;9.172;2023-04-03T04:51:10;5.70;96.10
758;DHT22;363;48.764;9.172;2023-04-03T04:53:35;5.60;96.60
758;DHT22;363;48.764;9.172;2023-04-03T04:56:01;5.50;96.30
758;DHT22;363;48.764;9.172;2023-04-03T04:58:27;5.80;96.10
758;DHT22;363;48.764;9.172;2023-04-03T05:01:19;5.50;95.90
758;DHT22;363;48.764;9.172;2023-04-03T05:03:45;6.20;96.50
758;DHT22;363;48.764;9.172;2023-04-03T05:06:11;5.60;95.40
758;DHT22;363;48.764;9.172;2023-04-03T05:08:36;5.60;94.30
758;DHT22;363;48.764;9.172;2023-04-03T05:11:02;5.60;94.50
758;DHT22;363;48.764;9.172;2023-04-03T05:13:28;5.60;94.20
758;DHT22;363;48.764;9.172;2023-04-03T05:15:53;5.70;94.10
758;DHT22;363;48.764;9.172;2023-04-03T05:18:19;5.80;94.50
758;DHT22;363;48.764;9.172;2023-04-03T05:20:44;5.70;94.30
758;DHT22;363;48.764;9.172;2023-04-03T05:23:11;5.90;94.60
758;DHT22;363;48.764;9.172;2023-04-03T05:25:39;6.00;95.40
758;DHT22;363;48.764;9.172;2023-04-03T05:28:06;5.90;94.90
758;DHT22;363;48.764;9.172;2023-04-03T05:30:32;6.00;95.20
758;DHT22;363;48.764;9.172;2023-04-03T05:32:58;6.50;94.80
758;DHT22;363;48.764;9.172;2023-04-03T05:35:24;6.00;94.50
758;DHT22;363;48.764;9.172;2023-04-03T05:37:50;5.80;94.70
758;DHT22;363;48.764;9.172;2023-04-03T05:40:16;5.70;94.80
758;DHT22;363;48.764;9.172;2023-04-03T05:42:42;6.00;95.10
758;DHT22;363;48.764;9.172;2023-04-03T05:45:08;5.80;95.00
758;DHT22;363;48.764;9.172;2023-04-03T05:47:33;6.00;95.10
758;DHT22;363;48.764;9.172;2023-04-03T05:49:59;6.00;95.20
758;DHT22;363;48.764;9.172;2023-04-03T05:52:30;5.90;94.90
758;DHT22;363;48.764;9.172;2023-04-03T05:54:56;6.00;95.30
758;DHT22;363;48.764;9.172;2023-04-03T05:57:22;5.60;95.20
758;DHT22;363;48.764;9.172;2023-04-03T05:59:48;5.90;95.90
758;DHT22;363;48.764;9.172;2023-04-03T06:02:17;6.40;95.70
758;DHT22;363;48.764;9.172;2023-04-03T06:04:43;5.90;95.00
758;DHT22;363;48.764;9.172;2023-04-03T06:07:18;5.80;94.80
758;DHT22;363;48.764;9.172;2023-04-03T06:09:46;6.00;95.50
758;DHT22;363;48.764;9.172;2023-04-03T06:12:12;5.90;94.90
758;DHT22;363;48.764;9.172;2023-04-03T06:14:38;6.20;94.90
758;DHT22;363;48.764;9.172;2023-04-03T06:17:04;6.30;95.40
758;DHT22;363;48.764;9.172;2023-04-03T06:19:31;6.10;95.80
758;DHT22;363;48.764;9.172;2023-04-03T06:21:57;6.50;94.10
758;DHT22;363;48.764;9.172;2023-04-03T06:24:22;6.60;94.30
758;DHT22;363;48.764;9.172;2023-04-03T06:26:50;6.10;93.70
758;DHT22;363;48.764;9.172;2023-04-03T06:29:17;6.50;94.30
758;DHT22;363;48.764;9.172;2023-04-03T06:31:43;6.50;94.50
758;DHT22;363;48.764;9.172;2023-04-03T06:34:09;6.60;95.50
758;DHT22;363;48.764;9.172;2023-04-03T06:36:36;6.80;95.20
758;DHT22;363;48.764;9.172;2023-04-03T06:39:01;6.80;94.00
758;DHT22;363;48.764;9.172;2023-04-03T06:41:28;6.70;94.00
758;DHT22;363;48.764;9.172;2023-04-03T06:43:54;6.70;93.80
758;DHT22;363;48.764;9.172;2023-04-03T06:46:22;6.70;94.00
758;DHT22;363;48.764;9.172;2023-04-03T06:48:49;6.20;93.60
758;DHT22;363;48.764;9.172;2023-04-03T06:51:24;6.70;96.00
758;DHT22;363;48.764;9.172;2023-04-03T06:53:52;6.90;94.00
758;DHT22;363;48.764;9.172;2023-04-03T06:56:18;6.70;93.80
758;DHT22;363;48.764;9.172;2023-04-03T06:58:45;6.90;94.20
758;DHT22;363;48.764;9.172;2023-04-03T07:01:13;6.40;94.60
758;DHT22;363;48.764;9.172;2023-04-03T07:03:39;6.80;94.40
758;DHT22;363;48.764;9.172;2023-04-03T07:06:06;6.30;94.70
758;DHT22;363;48.764;9.172;2023-04-03T07:08:33;6.80;94.40
758;DHT22;363;48.764;9.172;2023-04-03T07:11:00;6.70;94.50
758;DHT22;363;48.764;9.172;2023-04-03T07:13:25;7.00;94.70
758;DHT22;363;48.764;9.172;2023-04-03T07:15:52;6.30;94.00
758;DHT22;363;48.764;9.172;2023-04-03T07:18:18;6.50;94.50
758;DHT22;363;48.764;9.172;2023-04-03T07:20:44;7.20;94.40
758;DHT22;363;48.764;9.172;2023-04-03T07:23:10;7.20;94.70
758;DHT22;363;48.764;9.172;2023-04-03T07:25:36;7.40;94.80
758;DHT22;363;48.764;9.172;2023-04-03T07:28:03;7.10;93.40
758;DHT22;363;48.764;9.172;2023-04-03T07:30:29;7.40;93.50
758;DHT22;363;48.764;9.172;2023-04-03T07:32:55;7.40;94.30
758;DHT22;363;48.764;9.172;2023-04-03T07:35:20;7.50;95.10
758;DHT22;363;48.764;9.172;2023-04-03T07:37:46;7.60;93.30
758;DHT22;363;48.764;9.172;2023-04-03T07:40:12;7.80;93.00
758;DHT22;363;48.764;9.172;2023-04-03T07:42:38;7.80;93.30
758;DHT22;363;48.764;9.172;2023-04-03T07:45:04;7.70;92.90
758;DHT22;363;48.764;9.172;2023-04-03T07:47:30;7.50;93.40
758;DHT22;363;48.764;9.172;2023-04-03T07:49:56;7.70;93.20
758;DHT22;363;48.764;9.172;2023-04-03T07:52:23;7.80;92.90
758;DHT22;363;48.764;9.172;2023-04-03T07:54:48;7.60;93.10
758;DHT22;363;48.764;9.172;2023-04-03T07:57:14;7.80;92.70
758;DHT22;363;48.764;9.172;2023-04-03T07:59:40;7.80;92.90
758;DHT22;363;48.764;9.172;2023-04-03T08:02:09;7.70;92.60
758;DHT22;363;48.764;9.172;2023-04-03T08:04:35;7.50;92.60
758;DHT22;363;48.764;9.172;2023-04-03T08:07:01;7.80;93.20
758;DHT22;363;48.764;9.172;2023-04-03T08:09:26;7.60;93.10
758;DHT22;363;48.764;9.172;2023-04-03T08:11:52;7.70;93.00
758;DHT22;363;48.764;9.172;2023-04-03T08:14:19;8.20;93.30
758;DHT22;363;48.764;9.172;2023-04-03T08:16:47;8.00;92.30
758;DHT22;363;48.764;9.172;2023-04-03T08:19:14;8.10;92.20
758;DHT22;363;48.764;9.172;2023-04-03T08:21:42;7.80;92.00
758;DHT22;363;48.764;9.172;2023-04-03T08:24:08;7.70;92.40
758;DHT22;363;48.764;9.172;2023-04-03T08:26:34;7.90;92.80
758;DHT22;363;48.764;9.172;2023-04-03T08:29:00;7.80;93.50
758;DHT22;363;48.764;9.172;2023-04-03T08:31:26;8.20;93.30
758;DHT22;363;48.764;9.172;2023-04-03T08:33:52;7.90;92.50
758;DHT22;363;48.764;9.172;2023-04-03T08:36:25;8.10;93.00
758;DHT22;363;48.764;9.172;2023-04-03T08:38:52;7.80;93.30
758;DHT22;363;48.764;9.172;2023-04-03T08:41:55;8.10;93.00
758;DHT22;363;48.764;9.172;2023-04-03T08:44:56;8.10;93.30
758;DHT22;363;48.764;9.172;2023-04-03T08:47:52;7.90;93.40
758;DHT22;363;48.764;9.172;2023-04-03T08:50:26;8.20;93.10
758;DHT22;363;48.764;9.172;2023-04-03T08:52:59;8.20;92.90
758;DHT22;363;48.764;9.172;2023-04-03T08:55:33;8.40;92.70
758;DHT22;363;48.764;9.172;2023-04-03T08:58:11;8.40;92.50
758;DHT22;363;48.764;9.172;2023-04-03T09:00:54;8.90;92.30
758;DHT22;363;48.764;9.172;2023-04-03T09:03:21;9.10;91.70
758;DHT22;363;48.764;9.172;2023-04-03T09:05:58;8.80;90.90
758;DHT22;363;48.764;9.172;2023-04-03T09:08:28;9.40;90.30
758;DHT22;363;48.764;9.172;2023-04-03T09:21:48;9.40;90.50
758;DHT22;363;48.764;9.172;2023-04-03T09:24:16;9.60;89.50
758;DHT22;363;48.764;9.172;2023-04-03T09:29:18;9.80;88.80
758;DHT22;363;48.764;9.172;2023-04-03T09:31:44;9.70;87.80
758;DHT22;363;48.764;9.172;2023-04-03T09:34:22;9.30;87.60
758;DHT22;363;48.764;9.172;2023-04-03T09:36:53;8.90;88.30
758;DHT22;363;48.764;9.172;2023-04-03T09:39:24;8.80;89.50
758;DHT22;363;48.764;9.172;2023-04-03T09:42:16;8.70;90.50
758;DHT22;363;48.764;9.172;2023-04-03T09:44:56;8.50;90.30
758;DHT22;363;48.764;9.172;2023-04-03T09:47:33;8.60;90.40
758;DHT22;363;48.764;9.172;2023-04-03T09:52:39;8.60;88.70
758;DHT22;363;48.764;9.172;2023-04-03T09:55:07;8.70;89.10
758;DHT22;363;48.764;9.172;2023-04-03T09:57:33;8.50;88.60
758;DHT22;363;48.764;9.172;2023-04-03T10:00:02;8.50;89.80
758;DHT22;363;48.764;9.172;2023-04-03T10:02:40;8.30;89.40
758;DHT22;363;48.764;9.172;2023-04-03T10:07:51;8.40;90.10
758;DHT22;363;48.764;9.172;2023-04-03T10:10:18;7.90;90.40
758;DHT22;363;48.764;9.172;2023-04-03T10:12:45;8.20;90.80
758;DHT22;363;48.764;9.172;2023-04-03T10:15:16;8.30;90.90
758;DHT22;363;48.764;9.172;2023-04-03T10:18:02;8.50;90.70
758;DHT22;363;48.764;9.172;2023-04-03T10:20:37;8.20;90.20
758;DHT22;363;48.764;9.172;2023-04-03T10:23:24;8.20;90.50
758;DHT22;363;48.764;9.172;2023-04-03T10:26:08;8.20;90.40
758;DHT22;363;48.764;9.172;2023-04-03T10:34:06;8.50;89.10
758;DHT22;363;48.764;9.172;2023-04-03T10:39:39;8.70;88.50
758;DHT22;363;48.764;9.172;2023-04-03T10:42:20;8.50;87.60
758;DHT22;363;48.764;9.172;2023-04-03T10:55:40;8.30;89.30
758;DHT22;363;48.764;9.172;2023-04-03T10:58:35;8.40;88.70
758;DHT22;363;48.764;9.172;2023-04-03T11:01:21;8.80;86.70
758;DHT22;363;48.764;9.172;2023-04-03T11:03:53;8.80;87.80
758;DHT22;363;48.764;9.172;2023-04-03T11:06:21;8.80;86.20
758;DHT22;363;48.764;9.172;2023-04-03T11:08:59;8.90;86.00
758;DHT22;363;48.764;9.172;2023-04-03T11:11:31;8.50;86.30
758;DHT22;363;48.764;9.172;2023-04-03T11:14:11;8.10;87.00
758;DHT22;363;48.764;9.172;2023-04-03T11:16:45;8.50;86.60
758;DHT22;363;48.764;9.172;2023-04-03T11:19:38;8.80;86.60
758;DHT22;363;48.764;9.172;2023-04-03T11:24:37;9.30;82.90
758;DHT22;363;48.764;9.172;2023-04-03T11:27:05;8.80;82.10
758;DHT22;363;48.764;9.172;2023-04-03T11:29:38;8.80;82.60
758;DHT22;363;48.764;9.172;2023-04-03T11:32:34;8.90;81.90
758;DHT22;363;48.764;9.172;2023-04-03T11:35:04;8.90;81.70
758;DHT22;363;48.764;9.172;2023-04-03T11:37:51;8.60;81.70
758;DHT22;363;48.764;9.172;2023-04-03T11:40:32;8.00;82.50
758;DHT22;363;48.764;9.172;2023-04-03T11:43:28;8.40;83.10
758;DHT22;363;48.764;9.172;2023-04-03T11:46:00;8.70;83.50
758;DHT22;363;48.764;9.172;2023-04-03T11:53:35;8.40;82.90
758;DHT22;363;48.764;9.172;2023-04-03T11:56:02;8.50;84.00
758;DHT22;363;48.764;9.172;2023-04-03T11:58:30;8.30;82.30
758;DHT22;363;48.764;9.172;2023-04-03T12:01:02;8.50;80.30
758;DHT22;363;48.764;9.172;2023-04-03T12:14:03;8.90;80.90
758;DHT22;363;48.764;9.172;2023-04-03T12:27:40;8.70;82.60
758;DHT22;363;48.764;9.172;2023-04-03T12:30:12;8.60;81.50
758;DHT22;363;48.764;9.172;2023-04-03T12:35:21;8.80;81.90
758;DHT22;363;48.764;9.172;2023-04-03T12:46:17;8.70;81.30
758;DHT22;363;48.764;9.172;2023-04-03T12:48:52;8.90;81.30
758;DHT22;363;48.764;9.172;2023-04-03T12:54:04;8.80;78.90
758;DHT22;363;48.764;9.172;2023-04-03T12:56:38;8.80;78.20
758;DHT22;363;48.764;9.172;2023-04-03T12:59:23;9.00;78.40
758;DHT22;363;48.764;9.172;2023-04-03T13:01:58;9.20;78.80
758;DHT22;363;48.764;9.172;2023-04-03T13:04:25;9.10;76.40
758;DHT22;363;48.764;9.172;2023-04-03T13:06:50;9.00;77.20
758;DHT22;363;48.764;9.172;2023-04-03T13:09:28;9.30;78.00
758;DHT22;363;48.764;9.172;2023-04-03T13:12:11;8.70;77.20
758;DHT22;363;48.764;9.172;2023-04-03T13:14:37;9.50;76.80
758;DHT22;363;48.764;9.172;2023-04-03T13:17:16;9.40;75.80
758;DHT22;363;48.764;9.172;2023-04-03T13:19:43;9.90;74.90
758;DHT22;363;48.764;9.172;2023-04-03T13:24:53;10.40;70.40
758;DHT22;363;48.764;9.172;2023-04-03T13:27:20;10.40;69.70
758;DHT22;363;48.764;9.172;2023-04-03T13:29:51;10.30;69.10
758;DHT22;363;48.764;9.172;2023-04-03T13:32:23;10.10;68.90
758;DHT22;363;48.764;9.172;2023-04-03T13:34:50;10.20;70.40
758;DHT22;363;48.764;9.172;2023-04-03T13:37:33;10.20;69.20
758;DHT22;363;48.764;9.172;2023-04-03T13:40:09;10.30;70.10
758;DHT22;363;48.764;9.172;2023-04-03T13:42:38;10.30;68.10
758;DHT22;363;48.764;9.172;2023-04-03T13:45:27;10.00;68.70
758;DHT22;363;48.764;9.172;2023-04-03T13:48:08;9.90;69.60
758;DHT22;363;48.764;9.172;2023-04-03T13:50:51;9.80;71.30
758;DHT22;363;48.764;9.172;2023-04-03T13:53:18;10.30;69.30
758;DHT22;363;48.764;9.172;2023-04-03T13:55:57;10.30;68.80
758;DHT22;363;48.764;9.172;2023-04-03T13:58:31;10.20;67.40
758;DHT22;363;48.764;9.172;2023-04-03T14:01:19;9.90;68.10
758;DHT22;363;48.764;9.172;2023-04-03T14:03:59;10.20;67.40
758;DHT22;363;48.764;9.172;2023-04-03T14:06:27;9.90;69.10
758;DHT22;363;48.764;9.172;2023-04-03T14:08:52;10.10;67.70
758;DHT22;363;48.764;9.172;2023-04-03T14:11:28;10.10;67.30
758;DHT22;363;48.764;9.172;2023-04-03T14:13:57;9.70;68.10
758;DHT22;363;48.764;9.172;2023-04-03T14:16:27;10.30;67.90
758;DHT22;363;48.764;9.172;2023-04-03T14:18:55;9.50;69.40
758;DHT22;363;48.764;9.172;2023-04-03T14:21:21;9.70;70.80
758;DHT22;363;48.764;9.172;2023-04-03T14:23:48;9.60;71.10
758;DHT22;363;48.764;9.172;2023-04-03T14:26:16;9.50;70.20
758;DHT22;363;48.764;9.172;2023-04-03T14:28:43;9.30;69.70
758;DHT22;363;48.764;9.172;2023-04-03T14:31:11;9.20;70.50
758;DHT22;363;48.764;9.172;2023-04-03T14:33:37;9.70;71.00
758;DHT22;363;48.764;9.172;2023-04-03T14:36:20;9.40;72.00
758;DHT22;363;48.764;9.172;2023-04-03T14:38:47;9.50;71.70
758;DHT22;363;48.764;9.172;2023-04-03T14:41:14;9.20;71.90
758;DHT22;363;48.764;9.172;2023-04-03T14:43:41;9.10;70.30
758;DHT22;363;48.764;9.172;2023-04-03T14:46:14;9.30;70.50
758;DHT22;363;48.764;9.172;2023-04-03T14:48:41;9.40;69.00
758;DHT22;363;48.764;9.172;2023-04-03T14:51:08;9.80;70.10
758;DHT22;363;48.764;9.172;2023-04-03T14:53:34;10.40;73.90
758;DHT22;363;48.764;9.172;2023-04-03T14:56:00;10.00;66.80
758;DHT22;363;48.764;9.172;2023-04-03T14:58:25;10.10;64.90
758;DHT22;363;48.764;9.172;2023-04-03T15:00:51;9.60;65.40
758;DHT22;363;48.764;9.172;2023-04-03T15:03:18;9.80;66.50
758;DHT22;363;48.764;9.172;2023-04-03T15:05:46;9.70;67.40
758;DHT22;363;48.764;9.172;2023-04-03T15:08:25;9.50;68.40
758;DHT22;363;48.764;9.172;2023-04-03T15:10:54;9.20;67.10
758;DHT22;363;48.764;9.172;2023-04-03T15:13:22;9.30;73.20
758;DHT22;363;48.764;9.172;2023-04-03T15:15:48;9.30;67.40
758;DHT22;363;48.764;9.172;2023-04-03T15:18:26;9.30;66.50
758;DHT22;363;48.764;9.172;2023-04-03T15:20:53;9.10;68.30
758;DHT22;363;48.764;9.172;2023-04-03T15:23:20;9.30;70.00
758;DHT22;363;48.764;9.172;2023-04-03T15:25:52;9.30;68.00
758;DHT22;363;48.764;9.172;2023-04-03T15:28:43;9.60;67.20
758;DHT22;363;48.764;9.172;2023-04-03T15:31:08;9.40;66.70
758;DHT22;363;48.764;9.172;2023-04-03T15:33:34;9.30;65.60
758;DHT22;363;48.764;9.172;2023-04-03T15:36:01;9.20;66.00
758;DHT22;363;48.764;9.172;2023-04-03T15:38:26;9.20;64.80
758;DHT22;363;48.764;9.172;2023-04-03T15:40:53;8.80;63.40
758;DHT22;363;48.764;9.172;2023-04-03T15:43:20;8.90;64.80
758;DHT22;363;48.764;9.172;2023-04-03T15:45:45;9.10;65.70
758;DHT22;363;48.764;9.172;2023-04-03T15:48:12;8.30;66.40
758;DHT22;363;48.764;9.172;2023-04-03T15:50:38;8.90;68.00
758;DHT22;363;48.764;9.172;2023-04-03T15:53:04;8.50;67.30
758;DHT22;363;48.764;9.172;2023-04-03T15:55:32;8.50;68.30
758;DHT22;363;48.764;9.172;2023-04-03T15:57:58;8.50;69.10
758;DHT22;363;48.764;9.172;2023-04-03T16:00:25;8.50;68.30
758;DHT22;363;48.764;9.172;2023-04-03T16:02:53;8.30;68.50
758;DHT22;363;48.764;9.172;2023-04-03T16:05:21;8.60;68.50
758;DHT22;363;48.764;9.172;2023-04-03T16:07:47;8.00;68.10
758;DHT22;363;48.764;9.172;2023-04-03T16:10:15;8.60;67.70
758;DHT22;363;48.764;9.172;2023-04-03T16:12:41;8.60;67.10
758;DHT22;363;48.764;9.172;2023-04-03T16:15:08;8.40;67.50
758;DHT22;363;48.764;9.172;2023-04-03T16:17:34;8.80;65.80
758;DHT22;363;48.764;9.172;2023-04-03T16:20:01;9.10;66.00
758;DHT22;363;48.764;9.172;2023-04-03T16:22:29;9.00;65.50
758;DHT22;363;48.764;9.172;2023-04-03T16:24:55;8.70;64.90
758;DHT22;363;48.764;9.172;2023-04-03T16:27:21;8.90;64.50
758;DHT22;363;48.764;9.172;2023-04-03T16:29:47;8.80;64.90
758;DHT22;363;48.764;9.172;2023-04-03T16:32:14;8.70;64.20
758;DHT22;363;48.764;9.172;2023-04-03T16:34:40;8.50;64.20
758;DHT22;363;48.764;9.172;2023-04-03T16:37:06;8.40;64.30
758;DHT22;363;48.764;9.172;2023-04-03T16:39:34;8.40;64.10
758;DHT22;363;48.764;9.172;2023-04-03T16:42:00;8.40;63.40
758;DHT22;363;48.764;9.172;2023-04-03T16:44:25;8.20;63.20
758;DHT22;363;48.764;9.172;2023-04-03T16:46:51;8.70;64.80
758;DHT22;363;48.764;9.172;2023-04-03T16:49:17;8.40;64.80
758;DHT22;363;48.764;9.172;2023-04-03T16:51:42;8.40;66.10
758;DHT22;363;48.764;9.172;2023-04-03T16:54:08;8.40;65.00
758;DHT22;363;48.764;9.172;2023-04-03T16:56:36;8.10;65.10
758;DHT22;363;48.764;9.172;2023-04-03T16:59:02;8.40;66.10
758;DHT22;363;48.764;9.172;2023-04-03T17:01:27;8.30;67.20
758;DHT22;363;48.764;9.172;2023-04-03T17:03:53;8.20;67.10
758;DHT22;363;48.764;9.172;2023-04-03T17:06:20;8.30;67.30
758;DHT22;363;48.764;9.172;2023-04-03T17:08:49;8.20;67.70
758;DHT22;363;48.764;9.172;2023-04-03T17:11:16;8.60;66.50
758;DHT22;363;48.764;9.172;2023-04-03T17:13:42;8.30;66.30
758;DHT22;363;48.764;9.172;2023-04-03T17:16:11;8.10;66.80
758;DHT22;363;48.764;9.172;2023-04-03T17:18:38;8.10;67.90
758;DHT22;363;48.764;9.172;2023-04-03T17:21:05;8.60;69.20
758;DHT22;363;48.764;9.172;2023-04-03T17:23:31;8.60;66.60
758;DHT22;363;48.764;9.172;2023-04-03T17:26:00;8.20;67.10
758;DHT22;363;48.764;9.172;2023-04-03T17:28:25;8.20;66.30
758;DHT22;363;48.764;9.172;2023-04-03T17:30:54;8.20;66.10
758;DHT22;363;48.764;9.172;2023-04-03T17:33:20;8.30;67.90
758;DHT22;363;48.764;9.172;2023-04-03T17:35:46;8.10;66.80
758;DHT22;363;48.764;9.172;2023-04-03T17:38:12;8.10;66.80
758;DHT22;363;48.764;9.172;2023-04-03T17:40:38;7.90;66.80
758;DHT22;363;48.764;9.172;2023-04-03T17:43:04;8.00;67.70
758;DHT22;363;48.764;9.172;2023-04-03T17:45:30;7.80;67.90
758;DHT22;363;48.764;9.172;2023-04-03T17:47:56;8.00;68.90
758;DHT22;363;48.764;9.172;2023-04-03T17:50:21;8.20;68.90
758;DHT22;363;48.764;9.172;2023-04-03T17:52:47;8.00;68.20
758;DHT22;363;48.764;9.172;2023-04-03T17:55:13;7.90;68.30
758;DHT22;363;48.764;9.172;2023-04-03T17:57:40;7.70;67.90
758;DHT22;363;48.764;9.172;2023-04-03T18:00:06;7.80;68.40
758;DHT22;363;48.764;9.172;2023-04-03T18:02:32;7.90;68.90
758;DHT22;363;48.764;9.172;2023-04-03T18:04:57;7.60;69.20
758;DHT22;363;48.764;9.172;2023-04-03T18:07:24;7.60;70.00
758;DHT22;363;48.764;9.172;2023-04-03T18:09:50;7.60;70.30
758;DHT22;363;48.764;9.172;2023-04-03T18:12:17;7.60;70.90
758;DHT22;363;48.764;9.172;2023-04-03T18:14:43;7.50;70.80
758;DHT22;363;48.764;9.172;2023-04-03T18:17:09;7.50;71.80
758;DHT22;363;48.764;9.172;2023-04-03T18:19:35;7.70;71.80
758;DHT22;363;48.764;9.172;2023-04-03T18:22:05;7.90;71.60
758;DHT22;363;48.764;9.172;2023-04-03T18:24:33;7.50;71.90
758;DHT22;363;48.764;9.172;2023-04-03T18:27:02;7.20;71.40
758;DHT22;363;48.764;9.172;2023-04-03T18:29:32;7.10;71.30
758;DHT22;363;48.764;9.172;2023-04-03T18:32:00;7.30;71.50
758;DHT22;363;48.764;9.172;2023-04-03T18:34:29;7.30;71.20
758;DHT22;363;48.764;9.172;2023-04-03T18:36:54;7.40;71.70
758;DHT22;363;48.764;9.172;2023-04-03T18:39:20;7.50;72.20